createdAt,value
2023-03-05T00:02:43.080Z,7.75
2023-03-05T00:05:30.034Z,7.18
2023-03-05T00:08:19.002Z,6.95
2023-03-05T00:11:10.671Z,7.38
2023-03-05T00:13:58.335Z,8.10
2023-03-05T00:16:45.226Z,7.22
2023-03-05T00:19:32.179Z,7.30
2023-03-05T00:22:24.652Z,7.15
2023-03-05T00:25:11.643Z,7.50
2023-03-05T00:27:58.465Z,7.45
2023-03-05T00:30:45.293Z,7.65
2023-03-05T00:33:35.141Z,7.68
2023-03-05T00:36:21.992Z,7.45
2023-03-05T00:39:08.892Z,6.68
2023-03-05T00:41:55.854Z,7.38
2023-03-05T00:44:42.716Z,7.60
2023-03-05T00:47:29.624Z,7.57
2023-03-05T00:50:16.540Z,7.63
2023-03-05T00:53:03.476Z,6.85
2023-03-05T00:55:50.400Z,8.02
2023-03-05T00:58:37.270Z,8.07
2023-03-05T01:01:28.739Z,7.72
2023-03-05T01:04:15.603Z,7.78
2023-03-05T01:07:02.456Z,8.10
2023-03-05T01:09:49.302Z,7.78
2023-03-05T01:12:36.132Z,7.70
2023-03-05T01:15:25.596Z,8.00
2023-03-05T01:18:12.465Z,8.00
2023-03-05T01:20:59.294Z,7.50
2023-03-05T01:23:46.341Z,7.43
2023-03-05T01:26:33.281Z,8.07
2023-03-05T01:29:20.303Z,7.13
2023-03-05T01:32:07.189Z,7.45
2023-03-05T01:34:53.969Z,7.68
2023-03-05T01:37:40.911Z,7.75
2023-03-05T01:40:29.404Z,7.88
2023-03-05T01:43:22.131Z,8.18
2023-03-05T01:46:24.462Z,8.10
2023-03-05T01:49:15.669Z,7.60
2023-03-05T01:52:17.956Z,8.07
2023-03-05T01:55:27.380Z,8.27
2023-03-05T02:01:02.148Z,8.00
2023-03-05T02:03:49.209Z,8.25
2023-03-05T02:06:36.396Z,8.35
2023-03-05T02:09:24.011Z,7.75
2023-03-05T02:12:11.881Z,8.15
2023-03-05T02:14:59.395Z,7.75
2023-03-05T02:17:46.702Z,8.55
2023-03-05T02:21:04.320Z,7.88
2023-03-05T02:23:51.077Z,8.73
2023-03-05T02:26:38.090Z,8.95
2023-03-05T02:29:26.348Z,8.15
2023-03-05T02:32:16.264Z,8.57
2023-03-05T02:35:03.303Z,8.93
2023-03-05T02:37:50.400Z,9.05
2023-03-05T02:40:37.174Z,7.85
2023-03-05T02:43:24.018Z,8.57
2023-03-05T02:46:10.971Z,8.65
2023-03-05T02:48:57.834Z,8.50
2023-03-05T02:51:44.734Z,8.88
2023-03-05T02:54:31.574Z,9.23
2023-03-05T02:57:19.396Z,8.20
2023-03-05T03:00:07.390Z,7.72
2023-03-05T03:02:54.274Z,8.40
2023-03-05T03:05:41.139Z,8.88
2023-03-05T03:08:27.993Z,8.85
2023-03-05T03:11:14.829Z,8.10
2023-03-05T03:14:01.849Z,8.93
2023-03-05T03:16:48.707Z,9.20
2023-03-05T03:19:36.789Z,8.65
2023-03-05T03:22:23.590Z,9.50
2023-03-05T03:25:14.034Z,9.18
2023-03-05T03:28:00.865Z,9.48
2023-03-05T03:30:47.726Z,9.43
2023-03-05T03:33:34.656Z,8.75
2023-03-05T03:36:22.383Z,9.43
2023-03-05T03:39:12.136Z,9.70
2023-03-05T03:41:58.927Z,9.07
2023-03-05T03:44:45.764Z,9.45
2023-03-05T03:47:32.575Z,8.95
2023-03-05T03:50:21.478Z,10.07
2023-03-05T03:53:08.887Z,10.05
2023-03-05T03:55:58.518Z,9.63
2023-03-05T03:58:45.378Z,9.25
2023-03-05T04:01:32.261Z,9.68
2023-03-05T04:04:19.037Z,10.13
2023-03-05T04:07:05.901Z,9.85
2023-03-05T04:09:52.830Z,9.57
2023-03-05T04:12:39.596Z,8.77
2023-03-05T04:15:26.455Z,10.00
2023-03-05T04:18:13.348Z,10.25
2023-03-05T04:21:00.173Z,9.65
2023-03-05T04:23:46.970Z,9.63
2023-03-05T04:26:34.058Z,9.02
2023-03-05T04:29:21.154Z,9.02
2023-03-05T04:32:08.041Z,10.18
2023-03-05T04:34:55.042Z,9.13
2023-03-05T04:37:42.054Z,9.73
2023-03-05T04:40:28.890Z,9.38
2023-03-05T04:43:15.654Z,8.35
2023-03-05T04:46:02.442Z,9.73
2023-03-05T04:48:49.259Z,10.32
2023-03-05T04:51:36.056Z,9.95
2023-03-05T04:54:23.723Z,9.15
2023-03-05T04:57:10.521Z,8.68
2023-03-05T04:59:57.659Z,9.32
2023-03-05T05:02:46.346Z,9.45
2023-03-05T05:05:33.293Z,8.60
2023-03-05T05:08:20.089Z,9.30
2023-03-05T05:11:07.819Z,9.10
2023-03-05T05:13:54.639Z,9.18
2023-03-05T05:16:41.494Z,8.93
2023-03-05T05:19:28.399Z,9.25
2023-03-05T05:22:15.280Z,8.40
2023-03-05T05:25:02.465Z,8.63
2023-03-05T05:27:49.257Z,8.85
2023-03-05T05:30:36.101Z,9.15
2023-03-05T05:33:23.245Z,9.20
2023-03-05T05:36:13.342Z,8.90
2023-03-05T05:39:00.135Z,9.80
2023-03-05T05:41:50.845Z,8.95
2023-03-05T05:44:37.602Z,8.82
2023-03-05T05:47:24.441Z,8.65
2023-03-05T05:50:11.812Z,9.23
2023-03-05T05:52:58.731Z,9.70
2023-03-05T05:55:45.505Z,8.95
2023-03-05T05:58:32.335Z,9.05
2023-03-05T06:01:25.423Z,9.05
2023-03-05T06:04:14.825Z,8.55
2023-03-05T06:07:01.589Z,9.13
2023-03-05T06:09:48.677Z,8.88
2023-03-05T06:12:35.592Z,8.30
2023-03-05T06:15:22.410Z,9.93
2023-03-05T06:18:09.272Z,9.30
2023-03-05T06:21:02.103Z,10.00
2023-03-05T06:23:49.606Z,9.20
2023-03-05T06:26:36.391Z,9.18
2023-03-05T06:29:23.225Z,8.23
2023-03-05T06:32:10.092Z,8.07
2023-03-05T06:34:56.968Z,9.13
2023-03-05T06:37:43.897Z,9.43
2023-03-05T06:40:30.999Z,8.85
2023-03-05T06:43:17.984Z,8.45
2023-03-05T06:46:10.580Z,8.57
2023-03-05T06:49:01.970Z,8.68
2023-03-05T06:51:54.313Z,9.88
2023-03-05T06:54:50.393Z,9.45
2023-03-05T06:57:37.291Z,8.60
2023-03-05T07:00:25.110Z,8.50
2023-03-05T07:03:12.359Z,8.68
2023-03-05T07:05:59.154Z,8.95
2023-03-05T07:08:46.298Z,8.90
2023-03-05T07:11:34.043Z,9.32
2023-03-05T07:14:22.165Z,8.60
2023-03-05T07:17:09.106Z,8.15
2023-03-05T07:19:55.948Z,9.77
2023-03-05T07:22:42.922Z,9.55
2023-03-05T07:25:29.834Z,9.20
2023-03-05T07:28:16.872Z,8.85
2023-03-05T07:31:06.630Z,9.23
2023-03-05T07:33:54.123Z,8.73
2023-03-05T07:36:42.543Z,8.68
2023-03-05T07:39:29.658Z,8.63
2023-03-05T07:42:16.551Z,8.48
2023-03-05T07:45:03.553Z,8.68
2023-03-05T07:47:52.615Z,9.77
2023-03-05T07:50:39.532Z,8.52
2023-03-05T07:53:26.455Z,8.23
2023-03-05T07:56:13.435Z,8.57
2023-03-05T07:59:07.831Z,7.20
2023-03-05T08:01:54.993Z,8.13
2023-03-05T08:04:44.650Z,7.88
2023-03-05T08:07:32.903Z,8.18
2023-03-05T08:10:19.921Z,8.32
2023-03-05T08:13:11.765Z,8.13
2023-03-05T08:16:09.284Z,7.60
2023-03-05T08:18:59.320Z,7.85
2023-03-05T08:21:46.792Z,7.80
2023-03-05T08:24:49.367Z,7.68
2023-03-05T08:27:39.916Z,7.85
2023-03-05T08:30:27.464Z,8.05
2023-03-05T08:33:15.055Z,7.40
2023-03-05T08:36:01.837Z,8.25
2023-03-05T08:38:49.296Z,8.13
2023-03-05T08:41:42.460Z,8.15
2023-03-05T08:44:30.690Z,7.75
2023-03-05T08:47:21.314Z,7.57
2023-03-05T08:50:17.794Z,7.30
2023-03-05T08:53:08.471Z,7.22
2023-03-05T08:56:01.011Z,7.15
2023-03-05T08:59:03.762Z,6.57
2023-03-05T09:01:53.698Z,6.95
2023-03-05T09:04:41.024Z,7.18
2023-03-05T09:07:27.969Z,7.32
2023-03-05T09:10:21.372Z,7.35
2023-03-05T09:13:12.121Z,7.50
2023-03-05T09:16:04.854Z,7.07
2023-03-05T09:18:51.645Z,6.90
2023-03-05T09:21:38.433Z,7.35
2023-03-05T09:24:25.332Z,6.63
2023-03-05T09:27:12.154Z,7.90
2023-03-05T09:29:59.101Z,7.80
2023-03-05T09:32:46.070Z,7.28
2023-03-05T09:35:38.681Z,7.30
2023-03-05T09:38:25.609Z,6.97
2023-03-05T09:41:27.000Z,7.20
2023-03-05T09:44:32.188Z,6.82
2023-03-05T09:47:45.306Z,7.45
2023-03-05T09:50:44.843Z,7.10
2023-03-05T09:53:39.136Z,6.55
2023-03-05T09:56:30.102Z,7.30
2023-03-05T09:59:31.503Z,6.47
2023-03-05T10:02:23.758Z,6.88
2023-03-05T10:05:15.833Z,7.10
2023-03-05T10:08:05.053Z,7.43
2023-03-05T10:10:53.496Z,7.47
2023-03-05T10:13:46.127Z,7.03
2023-03-05T10:16:57.384Z,6.53
2023-03-05T10:20:15.167Z,6.30
2023-03-05T10:23:07.866Z,6.10
2023-03-05T10:26:03.446Z,6.60
2023-03-05T10:29:15.101Z,6.53
2023-03-05T10:32:07.259Z,6.55
2023-03-05T10:35:37.379Z,7.22
2023-03-05T10:38:36.285Z,6.40
2023-03-05T10:41:43.056Z,6.90
2023-03-05T10:44:36.615Z,6.57
2023-03-05T10:47:41.417Z,6.70
2023-03-05T10:50:34.866Z,6.55
2023-03-05T10:53:52.906Z,6.72
2023-03-05T10:56:39.936Z,6.35
2023-03-05T10:59:35.545Z,6.15
2023-03-05T11:02:22.862Z,6.35
2023-03-05T11:05:38.733Z,5.68
2023-03-05T11:08:29.993Z,6.78
2023-03-05T11:11:21.156Z,6.95
2023-03-05T11:14:31.144Z,6.82
2023-03-05T11:17:51.117Z,6.13
2023-03-05T11:20:37.958Z,6.43
2023-03-05T11:23:24.962Z,5.90
2023-03-05T11:26:14.470Z,5.72
2023-03-05T11:29:07.442Z,6.47
2023-03-05T11:31:54.418Z,5.65
2023-03-05T11:34:41.262Z,6.03
2023-03-05T11:37:30.465Z,5.88
2023-03-05T11:40:23.308Z,6.30
2023-03-05T11:43:15.480Z,6.07
2023-03-05T11:46:08.817Z,6.47
2023-03-05T11:49:00.340Z,6.03
2023-03-05T11:52:13.073Z,5.97
2023-03-05T11:55:13.610Z,5.28
2023-03-05T11:58:24.978Z,6.03
2023-03-05T12:01:18.925Z,5.20
2023-03-05T12:04:08.693Z,5.93
2023-03-05T12:07:01.121Z,5.78
2023-03-05T12:09:51.662Z,5.65
2023-03-05T12:12:53.380Z,5.88
2023-03-05T12:15:49.236Z,5.35
2023-03-05T12:19:15.136Z,5.78
2023-03-05T12:22:04.202Z,4.82
2023-03-05T12:24:52.051Z,5.35
2023-03-05T12:27:41.604Z,5.07
2023-03-05T12:30:34.213Z,4.95
2023-03-05T12:33:41.707Z,4.72
2023-03-05T12:36:36.859Z,5.18
2023-03-05T12:39:42.177Z,5.00
2023-03-05T12:42:28.904Z,4.60
2023-03-05T12:45:16.187Z,4.68
2023-03-05T12:48:02.908Z,4.55
2023-03-05T12:50:52.598Z,4.57
2023-03-05T12:53:39.385Z,5.25
2023-03-05T12:56:30.435Z,4.32
2023-03-05T12:59:20.090Z,4.18
2023-03-05T13:02:27.294Z,4.30
2023-03-05T13:05:42.532Z,4.50
2023-03-05T13:08:35.927Z,4.57
2023-03-05T13:11:23.062Z,4.63
2023-03-05T13:14:43.088Z,4.50
2023-03-05T13:17:31.124Z,4.10
2023-03-05T13:20:38.754Z,4.53
2023-03-05T13:23:27.394Z,4.35
2023-03-05T13:26:21.022Z,3.97
2023-03-05T13:29:28.277Z,3.78
2023-03-05T13:32:25.962Z,4.07
2023-03-05T13:35:13.174Z,3.72
2023-03-05T13:38:00.785Z,4.13
2023-03-05T13:41:01.214Z,4.07
2023-03-05T13:43:54.019Z,4.07
2023-03-05T13:46:40.930Z,4.03
2023-03-05T13:49:28.835Z,4.30
2023-03-05T13:52:30.852Z,4.28
2023-03-05T13:55:18.031Z,4.03
2023-03-05T13:58:05.092Z,4.00
2023-03-05T14:01:09.019Z,3.65
2023-03-05T14:04:03.784Z,3.53
2023-03-05T14:06:58.594Z,3.75
2023-03-05T14:09:52.009Z,3.42
2023-03-05T14:12:41.911Z,3.80
2023-03-05T14:15:35.860Z,3.63
2023-03-05T14:18:23.588Z,3.50
2023-03-05T14:21:12.259Z,3.70
2023-03-05T14:24:11.947Z,3.10
2023-03-05T14:27:03.290Z,3.15
2023-03-05T14:29:50.404Z,2.90
2023-03-05T14:32:37.558Z,2.72
2023-03-05T14:35:26.147Z,2.90
2023-03-05T14:38:22.510Z,2.90
2023-03-05T14:41:41.946Z,2.80
2023-03-05T14:44:28.749Z,2.88
2023-03-05T14:47:18.013Z,3.13
2023-03-05T14:52:56.124Z,2.90
2023-03-05T14:55:44.612Z,2.70
2023-03-05T14:58:33.492Z,2.58
2023-03-05T15:01:20.370Z,2.72
2023-03-05T15:04:07.176Z,2.58
2023-03-05T15:06:54.026Z,2.65
2023-03-05T15:09:40.806Z,2.53
2023-03-05T15:12:28.639Z,2.58
2023-03-05T15:15:16.129Z,2.70
2023-03-05T15:18:02.915Z,2.60
2023-03-05T15:20:54.623Z,2.53
2023-03-05T15:23:41.464Z,2.47
2023-03-05T15:26:28.250Z,2.50
2023-03-05T15:29:15.103Z,2.28
2023-03-05T15:32:02.334Z,2.30
2023-03-05T15:34:56.549Z,2.30
2023-03-05T15:37:43.345Z,2.60
2023-03-05T15:40:30.490Z,2.13
2023-03-05T15:43:20.871Z,2.17
2023-03-05T15:46:08.073Z,2.30
2023-03-05T15:48:57.102Z,2.40
2023-03-05T15:51:43.915Z,2.28
2023-03-05T15:54:30.725Z,2.08
2023-03-05T15:57:23.753Z,2.20
2023-03-05T16:00:12.101Z,2.20
2023-03-05T16:02:59.014Z,2.70
2023-03-05T16:05:46.002Z,2.20
2023-03-05T16:08:34.014Z,2.33
2023-03-05T16:11:21.445Z,2.65
2023-03-05T16:14:10.113Z,2.40
2023-03-05T16:17:02.072Z,2.30
2023-03-05T16:19:53.303Z,2.30
2023-03-05T16:22:46.377Z,2.42
2023-03-05T16:25:38.848Z,2.40
2023-03-05T16:28:37.850Z,2.15
2023-03-05T16:31:29.480Z,2.42
2023-03-05T16:34:19.257Z,2.20
2023-03-05T16:37:06.870Z,2.50
2023-03-05T16:39:58.131Z,2.35
2023-03-05T16:43:12.153Z,2.72
2023-03-05T16:46:01.213Z,2.30
2023-03-05T16:48:48.072Z,2.15
2023-03-05T16:51:35.389Z,2.33
2023-03-05T16:54:28.303Z,2.53
2023-03-05T16:57:15.742Z,2.38
2023-03-05T17:00:10.615Z,2.60
2023-03-05T17:02:57.406Z,2.28
2023-03-05T17:05:44.290Z,2.42
2023-03-05T17:08:31.541Z,2.15
2023-03-05T17:11:18.894Z,2.30
2023-03-05T17:14:05.690Z,2.30
2023-03-05T17:16:52.603Z,2.78
2023-03-05T17:19:39.534Z,2.28
2023-03-05T17:22:26.353Z,2.47
2023-03-05T17:25:13.716Z,2.42
2023-03-05T17:28:00.487Z,2.42
2023-03-05T17:30:48.880Z,2.30
2023-03-05T17:33:38.508Z,2.47
2023-03-05T17:36:28.951Z,2.72
2023-03-05T17:39:24.180Z,2.40
2023-03-05T17:42:11.047Z,2.25
2023-03-05T17:44:59.204Z,2.33
2023-03-05T17:47:46.016Z,2.25
2023-03-05T17:50:32.833Z,2.45
2023-03-05T17:53:19.837Z,2.47
2023-03-05T17:56:08.879Z,2.50
2023-03-05T17:58:56.009Z,2.28
2023-03-05T18:01:45.977Z,2.58
2023-03-05T18:04:35.278Z,2.42
2023-03-05T18:10:10.111Z,2.20
2023-03-05T18:12:56.985Z,2.40
2023-03-05T18:15:47.624Z,2.45
2023-03-05T18:18:34.884Z,2.58
2023-03-05T18:21:23.417Z,2.22
2023-03-05T18:24:10.645Z,2.50
2023-03-05T18:26:57.505Z,2.55
2023-03-05T18:29:44.246Z,2.10
2023-03-05T18:32:33.519Z,2.10
2023-03-05T18:38:07.084Z,2.22
2023-03-05T18:40:55.172Z,2.13
2023-03-05T18:43:42.752Z,2.30
2023-03-05T18:46:29.570Z,2.17
2023-03-05T18:49:16.541Z,2.28
2023-03-05T18:52:04.036Z,2.22
2023-03-05T18:54:50.877Z,2.30
2023-03-05T18:57:37.666Z,2.25
2023-03-05T19:00:27.878Z,2.28
2023-03-05T19:03:15.766Z,2.40
2023-03-05T19:06:14.500Z,2.53
2023-03-05T19:09:06.893Z,2.05
2023-03-05T19:11:53.664Z,2.35
2023-03-05T19:14:40.436Z,2.40
2023-03-05T19:17:27.842Z,2.30
2023-03-05T19:20:15.968Z,1.90
2023-03-05T19:23:02.957Z,2.60
2023-03-05T19:25:49.775Z,2.47
2023-03-05T19:28:36.751Z,2.38
2023-03-05T19:31:23.857Z,2.47
2023-03-05T19:34:10.791Z,2.40
2023-03-05T19:36:57.758Z,2.58
2023-03-05T19:39:44.608Z,2.58
2023-03-05T19:42:31.579Z,2.75
2023-03-05T19:45:18.539Z,2.67
2023-03-05T19:48:05.611Z,2.67
2023-03-05T19:50:52.477Z,2.63
2023-03-05T19:53:40.216Z,2.45
2023-03-05T19:56:27.100Z,2.47
2023-03-05T19:59:20.209Z,2.45
2023-03-05T20:02:08.426Z,2.40
2023-03-05T20:04:55.515Z,2.63
2023-03-05T20:07:42.378Z,2.88
2023-03-05T20:10:30.442Z,2.58
2023-03-05T20:13:17.544Z,2.50
2023-03-05T20:16:20.291Z,2.35
2023-03-05T20:19:08.497Z,2.38
2023-03-05T20:21:57.863Z,2.75
2023-03-05T20:24:44.642Z,2.40
2023-03-05T20:27:31.498Z,2.47
2023-03-05T20:30:18.767Z,2.67
2023-03-05T20:33:05.601Z,2.47
2023-03-05T20:35:53.399Z,2.80
2023-03-05T20:38:41.558Z,2.95
2023-03-05T20:41:28.851Z,2.85
2023-03-05T20:44:16.501Z,2.67
2023-03-05T20:47:15.924Z,2.83
2023-03-05T20:50:03.178Z,2.65
2023-03-05T20:52:49.995Z,2.80
2023-03-05T20:55:36.936Z,2.90
2023-03-05T20:58:23.750Z,2.65
2023-03-05T21:01:10.654Z,2.72
2023-03-05T21:03:57.526Z,2.75
2023-03-05T21:06:47.675Z,2.70
2023-03-05T21:09:34.526Z,3.20
2023-03-05T21:12:21.360Z,2.78
2023-03-05T21:15:09.342Z,3.13
2023-03-05T21:17:56.785Z,3.10
2023-03-05T21:20:43.795Z,3.22
2023-03-05T21:23:30.650Z,2.65
2023-03-05T21:26:17.834Z,2.80
2023-03-05T21:29:04.681Z,2.72
2023-03-05T21:31:51.545Z,3.58
2023-03-05T21:34:38.574Z,2.97
2023-03-05T21:37:25.882Z,2.97
2023-03-05T21:40:17.305Z,3.90
2023-03-05T21:43:07.520Z,2.95
2023-03-05T21:45:57.072Z,3.05
2023-03-05T21:48:44.166Z,3.20
2023-03-05T22:04:22.919Z,3.17
2023-03-05T22:11:19.407Z,3.28
2023-03-05T22:14:06.227Z,3.40
2023-03-05T22:16:54.948Z,3.45
2023-03-05T22:23:50.089Z,3.67
2023-03-05T22:26:39.076Z,3.65
2023-03-05T22:29:26.916Z,3.40
2023-03-05T22:32:13.823Z,3.40
2023-03-05T22:35:00.848Z,3.58
2023-03-05T22:37:47.682Z,3.50
2023-03-05T22:40:36.948Z,3.83
2023-03-05T22:46:19.921Z,3.58
2023-03-05T22:49:06.743Z,3.70
2023-03-05T22:51:53.511Z,3.55
2023-03-05T22:54:40.280Z,3.97
2023-03-05T22:57:27.081Z,3.72
2023-03-05T23:00:28.677Z,3.70
2023-03-05T23:03:15.766Z,3.55
2023-03-05T23:06:02.615Z,3.88
2023-03-05T23:08:49.786Z,3.50
2023-03-05T23:11:36.578Z,3.67
2023-03-05T23:14:23.386Z,3.63
2023-03-05T23:17:10.161Z,4.07
2023-03-05T23:19:56.929Z,3.83
2023-03-05T23:22:45.068Z,4.13
2023-03-05T23:25:33.625Z,4.00
2023-03-05T23:28:20.604Z,4.22
2023-03-05T23:31:07.779Z,3.65
2023-03-05T23:33:54.679Z,3.88
2023-03-05T23:36:42.169Z,4.00
2023-03-05T23:39:29.006Z,3.80
2023-03-05T23:42:15.779Z,4.13
2023-03-05T23:45:02.679Z,4.05
2023-03-05T23:47:49.697Z,4.30
2023-03-05T23:50:39.610Z,3.67
2023-03-05T23:53:29.315Z,4.20
2023-03-05T23:56:16.185Z,3.83
2023-03-05T23:59:03.036Z,3.80
